Aérodrome :
LOGIN :

S'inscrire | Disclaimer

   EN    FR    IT 

 










Légende :    VFR   VFR Marginal   IFR   IFR Intensif   IFR Très Intensif
Visi : 
Plafond : 
>= 8 km
>= 3000ft
5 à 8 km
1000 à 3000 ft
1500m à 5 km
500 à 1000 ft
800 à 1500m
200 à 500 ft
< 800m
< 200 ft
Symboles :   Orages  Brouillard  Fortes neiges  Fortes précipitations  Vent > 20 kt
SIGMETs :   Divers  Orages  Givrage  Turbulence  Onde Orograph.  Cendres Volcan.






- Altitude de l'aérodrome : 333 ft


LIPL - Ghedi Brescia (Mil)

DERNIER METAR :
  • 300055Z 12002KT 3000 BR NSC 02/M00 Q1019 RMK SKC VIS MIN 3000 WIND THR31 09002KT WIND THR13 06002KT YLO

METARs EXPIRÉS :
  • 292355Z 10002KT 4000 BR NSC 02/00 Q1019 RMK SKC VIS MIN 4000 WIND THR31 05002KT WIND THR13 07002KT GRN
  • 292255Z 12002KT 4000 BR NSC 02/00 Q1019 RMK SKC VIS MIN 4000 WIND THR31 12004KT WIND THR13 08001KT GRN

TAF TAF LIPL
Valide du 30 à 00h jusqu'au 30 à 09h UTC


292300Z 3000/3009 VRB03KT 5000 BR NSC
TEMPO 3000/3006 1500 BR



MET'MAP, la Météo Aéronautique d'un coup d'oeil ! - Copyright ORBIFLY Décembre 2007 - Disclaimer

ORBIFLY MET'MAP TEAM :

Programmation & Développement : Alexandra Zaïnal
Sur une idée originale de : Baudouin d'Aumeries
Assistance à la programmation : Marc-Olivier Méhu
Soutien technique & logistique : Manuel Goepfert

Contact : metmap@orbifly.com




SOURCES & CREDITS :

   NOAA